createdAt,value
2022-08-17T11:02:12.275Z,1.30
2022-08-17T11:03:22.346Z,1.33
2022-08-17T11:04:57.320Z,1.25
2022-08-17T11:06:41.887Z,1.73
2022-08-17T11:08:06.951Z,1.20
2022-08-17T11:09:16.620Z,1.52
2022-08-17T11:10:36.745Z,1.00
2022-08-17T11:12:06.596Z,1.23
2022-08-17T11:13:28.808Z,1.33
2022-08-17T11:14:56.277Z,1.60
2022-08-17T11:16:40.238Z,1.30
2022-08-17T11:17:57.366Z,1.23
2022-08-17T11:19:35.801Z,1.10
2022-08-17T11:20:46.448Z,1.03
2022-08-17T11:22:06.405Z,1.33
2022-08-17T11:23:29.742Z,1.23
2022-08-17T11:24:36.066Z,1.10
2022-08-17T11:25:43.087Z,1.30
2022-08-17T11:27:02.167Z,1.08
2022-08-17T11:28:19.377Z,0.98
2022-08-17T11:29:25.605Z,1.23
2022-08-17T11:30:46.925Z,1.55
2022-08-17T11:32:14.074Z,1.13
2022-08-17T11:33:36.623Z,0.97
2022-08-17T11:34:41.731Z,1.30
2022-08-17T11:35:51.233Z,1.30
2022-08-17T11:37:01.659Z,1.30
2022-08-17T11:38:29.334Z,1.15
2022-08-17T11:39:53.151Z,1.50
2022-08-17T11:41:28.759Z,1.10
2022-08-17T11:42:54.258Z,1.17
2022-08-17T11:44:24.715Z,1.10
2022-08-17T11:45:44.761Z,1.30
2022-08-17T11:47:23.959Z,0.90
2022-08-17T11:48:55.280Z,1.20
2022-08-17T11:50:53.207Z,1.20
2022-08-17T11:52:12.172Z,1.05
2022-08-17T11:53:37.235Z,0.95
2022-08-17T11:54:45.296Z,1.30
2022-08-17T11:55:52.926Z,1.40
2022-08-17T11:56:54.715Z,1.00
2022-08-17T11:58:06.386Z,1.17
2022-08-17T11:59:39.204Z,1.00
2022-08-17T12:00:46.808Z,1.00
2022-08-17T12:01:56.723Z,1.20
2022-08-17T12:03:33.448Z,1.00
2022-08-17T12:04:35.681Z,1.17
2022-08-17T12:05:37.591Z,1.33
2022-08-17T12:06:50.374Z,1.25
2022-08-17T12:08:12.447Z,1.10
2022-08-17T12:09:39.064Z,1.13
2022-08-17T12:10:54.188Z,1.10
2022-08-17T12:12:14.821Z,0.88
2022-08-17T12:13:18.097Z,1.00
2022-08-17T12:14:40.121Z,1.20
2022-08-17T12:15:52.789Z,1.20
2022-08-17T12:17:07.888Z,1.00
2022-08-17T12:18:27.845Z,1.00
2022-08-17T12:19:30.203Z,1.15
2022-08-17T12:20:39.963Z,1.02
2022-08-17T12:21:54.908Z,1.10
2022-08-17T12:23:04.425Z,1.00
2022-08-17T12:24:29.199Z,1.15
2022-08-17T12:25:38.067Z,1.13
2022-08-17T12:26:40.670Z,1.02
2022-08-17T12:28:06.706Z,1.05
2022-08-17T12:29:18.020Z,1.20
2022-08-17T12:30:25.134Z,1.50
2022-08-17T12:31:30.981Z,1.05
2022-08-17T12:32:35.508Z,1.40
2022-08-17T12:33:42.420Z,1.20
2022-08-17T12:34:46.751Z,1.17
2022-08-17T12:35:48.576Z,1.40
2022-08-17T12:37:05.379Z,1.17
2022-08-17T12:38:32.164Z,0.90
2022-08-17T12:39:33.977Z,1.25
2022-08-17T12:40:36.235Z,1.25
2022-08-17T12:41:45.038Z,1.60
2022-08-17T12:43:00.725Z,1.02
2022-08-17T12:44:27.807Z,1.10
2022-08-17T12:45:32.965Z,1.05
2022-08-17T12:47:00.534Z,0.90
2022-08-17T12:48:13.624Z,1.10
2022-08-17T12:49:24.509Z,1.10
2022-08-17T12:50:29.281Z,1.02
2022-08-17T12:51:31.846Z,0.82
2022-08-17T12:52:37.434Z,1.00
2022-08-17T12:53:42.324Z,0.93
2022-08-17T12:54:50.048Z,0.90
2022-08-17T12:55:52.380Z,0.90
2022-08-17T12:56:54.516Z,1.05
2022-08-17T12:57:59.596Z,1.15
2022-08-17T12:59:03.713Z,1.00
2022-08-17T13:00:24.035Z,1.00
2022-08-17T13:01:26.457Z,1.08
2022-08-17T13:02:32.488Z,0.90
2022-08-17T13:03:49.955Z,1.27
2022-08-17T13:04:51.807Z,0.95
2022-08-17T13:06:00.587Z,1.23
2022-08-17T13:07:02.460Z,1.00
2022-08-17T13:08:13.453Z,0.80
2022-08-17T13:09:35.419Z,1.60
2022-08-17T13:10:41.762Z,1.20
2022-08-17T13:11:53.577Z,1.20
2022-08-17T13:12:55.919Z,1.10
2022-08-17T13:14:09.183Z,1.08
2022-08-17T13:15:20.830Z,1.08
2022-08-17T13:16:25.471Z,0.90
2022-08-17T13:17:32.670Z,1.10
2022-08-17T13:18:34.353Z,1.00
2022-08-17T13:19:47.820Z,1.02
2022-08-17T13:20:54.306Z,0.90
2022-08-17T13:21:58.918Z,1.30
2022-08-17T13:23:03.085Z,1.17
2022-08-17T13:24:07.932Z,1.40
2022-08-17T13:25:16.604Z,1.30
2022-08-17T13:26:22.617Z,1.20
2022-08-17T13:27:27.573Z,1.10
2022-08-17T13:28:30.671Z,1.27
2022-08-17T13:29:39.330Z,1.13
2022-08-17T13:30:41.069Z,1.20
2022-08-17T13:31:52.052Z,1.45
2022-08-17T13:32:56.623Z,1.10
2022-08-17T13:34:17.468Z,1.27
2022-08-17T13:35:48.299Z,1.00
2022-08-17T13:37:13.962Z,0.85
2022-08-17T13:38:34.707Z,1.27
2022-08-17T13:39:41.419Z,1.00
2022-08-17T13:40:49.925Z,1.08
2022-08-17T13:41:53.996Z,1.00
2022-08-17T13:42:56.587Z,1.13
2022-08-17T13:43:58.308Z,0.98
2022-08-17T13:45:01.615Z,1.08
2022-08-17T13:46:29.064Z,0.90
2022-08-17T13:47:30.983Z,1.00
2022-08-17T13:48:33.949Z,1.08
2022-08-17T13:49:41.953Z,0.98
2022-08-17T13:50:57.018Z,0.98
2022-08-17T13:51:59.003Z,1.20
2022-08-17T13:53:50.491Z,1.10
2022-08-17T13:54:52.375Z,1.33
2022-08-17T13:56:38.385Z,0.90
2022-08-17T13:57:37.104Z,1.10
2022-08-17T13:58:50.765Z,1.10
2022-08-17T13:59:57.296Z,1.00
2022-08-17T14:01:19.343Z,1.10
2022-08-17T14:02:21.118Z,1.20
2022-08-17T14:03:23.899Z,1.48
2022-08-17T14:04:28.688Z,1.08
2022-08-17T14:05:31.454Z,1.20
2022-08-17T14:06:52.448Z,0.95
2022-08-17T14:07:58.016Z,0.88
2022-08-17T14:09:02.173Z,1.00
2022-08-17T14:10:14.366Z,1.30
2022-08-17T14:11:17.318Z,1.23
2022-08-17T14:12:24.933Z,0.90
2022-08-17T14:13:26.662Z,1.00
2022-08-17T14:14:29.317Z,1.00
2022-08-17T14:15:55.004Z,0.95
2022-08-17T14:16:54.338Z,1.00
2022-08-17T14:17:56.073Z,1.02
2022-08-17T14:18:57.842Z,1.00
2022-08-17T14:19:59.702Z,1.02
2022-08-17T14:21:01.443Z,1.50
2022-08-17T14:22:04.914Z,0.98
2022-08-17T14:23:08.409Z,1.33
2022-08-17T14:24:25.988Z,1.00
2022-08-17T14:25:29.709Z,1.10
2022-08-17T14:26:31.448Z,1.00
2022-08-17T14:27:41.600Z,1.00
2022-08-17T14:28:56.948Z,0.90
2022-08-17T14:29:59.170Z,1.38
2022-08-17T14:31:01.110Z,1.00
2022-08-17T14:32:11.427Z,1.03
2022-08-17T14:33:14.296Z,1.00
2022-08-17T14:34:15.998Z,0.90
2022-08-17T14:35:19.682Z,1.17
2022-08-17T14:36:21.407Z,1.00
2022-08-17T14:37:26.338Z,0.95
2022-08-17T14:38:28.258Z,1.30
2022-08-17T14:39:30.009Z,1.10
2022-08-17T14:40:33.423Z,1.77
2022-08-17T14:41:35.938Z,1.00
2022-08-17T14:42:40.531Z,1.30
2022-08-17T14:43:42.279Z,1.20
2022-08-17T14:44:44.581Z,1.10
2022-08-17T14:45:47.013Z,0.85
2022-08-17T14:46:50.628Z,1.20
2022-08-17T14:47:52.535Z,1.10
2022-08-17T14:48:57.389Z,1.20
2022-08-17T14:49:59.613Z,1.27
2022-08-17T14:51:01.706Z,1.10
2022-08-17T14:52:03.765Z,0.80
2022-08-17T14:53:07.836Z,1.20
2022-08-17T14:54:10.109Z,0.98
2022-08-17T14:55:13.207Z,1.10
2022-08-17T14:56:15.139Z,1.00
2022-08-17T14:57:24.720Z,1.10
2022-08-17T14:58:35.615Z,1.00
2022-08-17T14:59:47.599Z,1.10
2022-08-17T15:00:51.087Z,1.10
2022-08-17T15:01:52.956Z,1.10
2022-08-17T15:02:58.375Z,1.30
2022-08-17T15:04:00.918Z,1.27
2022-08-17T15:05:05.190Z,1.20
2022-08-17T15:06:11.982Z,1.08
2022-08-17T15:07:15.370Z,0.90
2022-08-17T15:08:17.848Z,1.20
2022-08-17T15:09:19.588Z,1.17
2022-08-17T15:10:22.288Z,1.38
2022-08-17T15:11:25.889Z,2.28
2022-08-17T15:12:32.345Z,1.23
2022-08-17T15:13:36.246Z,1.30
2022-08-17T15:14:53.775Z,1.33
2022-08-17T15:15:55.679Z,1.30
2022-08-17T15:16:57.476Z,1.02
2022-08-17T15:17:59.943Z,1.13
2022-08-17T15:19:04.217Z,1.42
2022-08-17T15:20:14.576Z,1.20
2022-08-17T15:21:16.785Z,1.27
2022-08-17T15:22:24.125Z,1.00
2022-08-17T15:23:27.096Z,0.98
2022-08-17T15:24:28.936Z,0.90
2022-08-17T15:25:32.480Z,1.10
2022-08-17T15:26:34.458Z,1.10
2022-08-17T15:27:36.545Z,1.10
2022-08-17T15:28:38.274Z,1.33
2022-08-17T15:29:39.988Z,1.10
2022-08-17T15:30:43.501Z,1.13
2022-08-17T15:31:45.224Z,1.00
2022-08-17T15:32:54.111Z,1.15
2022-08-17T15:33:56.756Z,1.00
2022-08-17T15:35:00.421Z,1.05
2022-08-17T15:36:06.522Z,1.10
2022-08-17T15:37:08.322Z,1.00
2022-08-17T15:38:12.264Z,1.05
2022-08-17T15:39:14.198Z,1.10
2022-08-17T15:40:21.413Z,1.30
2022-08-17T15:41:23.229Z,1.48
2022-08-17T15:42:25.271Z,1.27
2022-08-17T15:43:32.427Z,1.40
2022-08-17T15:44:39.262Z,1.10
2022-08-17T15:45:41.319Z,1.25
2022-08-17T15:46:43.200Z,1.03
2022-08-17T15:47:45.434Z,1.40
2022-08-17T15:48:54.727Z,1.30
2022-08-17T15:49:59.988Z,1.00
2022-08-17T15:51:02.055Z,1.20
2022-08-17T15:52:19.650Z,1.30
2022-08-17T15:53:21.437Z,1.10
2022-08-17T15:54:23.544Z,1.10
2022-08-17T15:55:26.997Z,1.30
2022-08-17T15:56:31.209Z,1.10
2022-08-17T15:57:33.788Z,1.10
2022-08-17T15:58:37.931Z,1.30
2022-08-17T15:59:40.336Z,1.30
2022-08-17T16:00:52.935Z,1.15
2022-08-17T16:03:14.822Z,1.27
2022-08-17T16:04:01.108Z,1.27
2022-08-17T16:04:43.937Z,1.17
2022-08-17T16:05:46.255Z,1.02
2022-08-17T16:06:48.873Z,1.20
2022-08-17T16:07:51.054Z,1.10
2022-08-17T16:08:54.464Z,1.10
2022-08-17T16:09:56.161Z,1.50
2022-08-17T16:11:01.253Z,1.20
2022-08-17T16:12:14.064Z,1.08
2022-08-17T16:13:17.560Z,1.23
2022-08-17T16:14:19.792Z,0.90
2022-08-17T16:15:21.978Z,1.10
2022-08-17T16:16:24.266Z,1.15
2022-08-17T16:17:38.578Z,1.30
2022-08-17T16:18:44.457Z,0.93
2022-08-17T16:19:46.413Z,1.23
2022-08-17T16:20:48.249Z,1.23
2022-08-17T16:21:49.970Z,0.98
2022-08-17T16:22:51.979Z,0.90
2022-08-17T16:24:01.049Z,0.90
2022-08-17T16:25:06.749Z,0.90
2022-08-17T16:26:09.033Z,1.10
2022-08-17T16:27:11.867Z,0.93
2022-08-17T16:28:16.537Z,1.20
2022-08-17T16:29:18.366Z,1.08
2022-08-17T16:30:23.479Z,1.10
2022-08-17T16:31:25.826Z,1.42
2022-08-17T16:32:31.727Z,1.30
2022-08-17T16:33:34.914Z,1.10
2022-08-17T16:34:36.680Z,1.40
2022-08-17T16:35:38.454Z,0.95
2022-08-17T16:36:41.441Z,1.00
2022-08-17T16:37:57.242Z,1.20
2022-08-17T16:39:00.560Z,1.20
2022-08-17T16:40:06.823Z,1.23
2022-08-17T16:41:08.927Z,1.30
2022-08-17T16:42:48.369Z,1.20
2022-08-17T16:43:51.091Z,1.55
2022-08-17T16:45:01.030Z,1.20
2022-08-17T16:46:02.760Z,1.30
2022-08-17T16:47:07.378Z,1.17
2022-08-17T16:48:09.926Z,1.23
2022-08-17T16:49:11.879Z,1.27
2022-08-17T16:50:27.513Z,1.20
2022-08-17T16:51:29.252Z,1.10
2022-08-17T16:52:32.681Z,1.43
2022-08-17T16:53:34.937Z,1.15
2022-08-17T16:54:39.049Z,1.10
2022-08-17T16:55:42.516Z,1.20
2022-08-17T16:56:44.228Z,1.30
2022-08-17T16:57:50.310Z,1.08
2022-08-17T16:58:53.444Z,1.10
2022-08-17T16:59:55.692Z,1.10
2022-08-17T17:00:59.600Z,1.27
2022-08-17T17:02:08.429Z,1.20
2022-08-17T17:03:20.211Z,1.17
2022-08-17T17:04:23.337Z,1.30
2022-08-17T17:05:55.352Z,1.70
2022-08-17T17:07:16.906Z,1.30
2022-08-17T17:09:02.500Z,1.60
2022-08-17T17:10:14.822Z,1.23
2022-08-17T17:11:24.937Z,1.85
2022-08-17T17:12:34.872Z,1.55
2022-08-17T17:13:59.587Z,1.50
2022-08-17T17:15:01.682Z,1.50
2022-08-17T17:16:24.965Z,1.50
2022-08-17T17:17:34.603Z,1.50
2022-08-17T17:18:41.258Z,1.60
2022-08-17T17:19:59.249Z,1.60
2022-08-17T17:21:02.149Z,1.60
2022-08-17T17:22:29.446Z,1.50
2022-08-17T17:23:49.326Z,1.55
2022-08-17T17:25:02.867Z,1.40
2022-08-17T17:26:38.300Z,1.77
2022-08-17T17:27:47.308Z,1.70
2022-08-17T17:29:00.156Z,1.70
2022-08-17T17:30:13.741Z,4.10
2022-08-17T17:31:23.728Z,4.00
2022-08-17T17:32:37.991Z,2.13
2022-08-17T17:33:48.827Z,5.43
2022-08-17T17:35:00.866Z,8.10
2022-08-17T17:36:08.790Z,3.90
2022-08-17T17:37:14.728Z,2.92
2022-08-17T17:38:31.578Z,7.30
2022-08-17T17:39:45.888Z,10.75
2022-08-17T17:40:51.136Z,9.40
2022-08-17T17:41:59.324Z,7.15
2022-08-17T17:43:34.954Z,6.97
2022-08-17T17:44:33.001Z,5.13
2022-08-17T17:45:46.800Z,5.60
2022-08-17T17:46:54.588Z,7.20
2022-08-17T17:47:56.331Z,9.02
2022-08-17T17:48:58.284Z,7.60
2022-08-17T17:50:01.918Z,7.05
2022-08-17T17:52:07.158Z,5.13
2022-08-17T17:53:43.097Z,4.77
2022-08-17T17:55:06.962Z,3.40
2022-08-17T17:56:43.248Z,4.20
2022-08-17T17:57:57.798Z,3.78
2022-08-17T17:59:12.963Z,4.05
2022-08-17T18:00:16.959Z,4.15
2022-08-17T18:01:32.012Z,4.32
2022-08-17T18:02:51.853Z,3.38
2022-08-17T18:04:18.910Z,3.83
2022-08-17T18:05:34.816Z,3.75
2022-08-17T18:07:12.296Z,3.10
2022-08-17T18:08:34.081Z,2.78
2022-08-17T18:10:05.687Z,2.88
2022-08-17T18:11:24.971Z,2.30
2022-08-17T18:12:56.786Z,2.78
2022-08-17T18:14:43.594Z,2.70
2022-08-17T18:15:51.112Z,2.60
2022-08-17T18:16:58.628Z,2.20
2022-08-17T18:18:26.205Z,2.67
2022-08-17T18:19:30.219Z,2.60
2022-08-17T18:20:43.166Z,1.87
2022-08-17T18:22:19.752Z,2.50
2022-08-17T18:23:27.102Z,1.90
2022-08-17T18:24:35.882Z,2.10
2022-08-17T18:25:44.657Z,2.33
2022-08-17T18:26:57.660Z,1.98
2022-08-17T18:27:59.453Z,2.17
2022-08-17T18:29:11.359Z,2.15
2022-08-17T18:30:13.031Z,1.80
2022-08-17T18:31:20.089Z,2.53
2022-08-17T18:32:31.265Z,2.97
2022-08-17T18:33:33.479Z,2.47
2022-08-17T18:34:47.228Z,2.28
2022-08-17T18:35:58.855Z,1.80
2022-08-17T18:37:08.106Z,2.38
2022-08-17T18:38:35.763Z,2.10
2022-08-17T18:39:38.327Z,2.72
2022-08-17T18:40:40.120Z,2.00
2022-08-17T18:41:44.903Z,1.88
2022-08-17T18:43:04.846Z,2.53
2022-08-17T18:44:21.398Z,2.00
2022-08-17T18:46:01.412Z,1.80
2022-08-17T18:47:17.753Z,2.13
2022-08-17T18:48:25.303Z,2.42
2022-08-17T18:49:28.886Z,2.33
2022-08-17T18:50:41.196Z,1.77
2022-08-17T18:51:43.361Z,1.90
2022-08-17T18:52:48.221Z,1.90
2022-08-17T18:54:24.328Z,2.10
2022-08-17T18:55:31.318Z,1.65
2022-08-17T18:56:40.317Z,2.20
2022-08-17T18:57:46.691Z,1.80
2022-08-17T18:58:53.894Z,2.13
2022-08-17T18:59:55.930Z,2.10
2022-08-17T19:00:57.820Z,1.85
2022-08-17T19:02:10.271Z,2.45
2022-08-17T19:03:21.919Z,1.98
2022-08-17T19:04:42.171Z,3.05
2022-08-17T19:05:49.931Z,2.38
2022-08-17T19:07:10.751Z,1.73
2022-08-17T19:08:30.639Z,2.23
2022-08-17T19:09:45.750Z,2.10
2022-08-17T19:10:51.344Z,2.53
2022-08-17T19:11:53.112Z,2.45
2022-08-17T19:13:01.812Z,2.25
2022-08-17T19:14:16.731Z,2.40
2022-08-17T19:15:30.816Z,2.40
2022-08-17T19:16:55.550Z,1.77
2022-08-17T19:18:18.408Z,2.28
2022-08-17T19:19:30.501Z,2.30
2022-08-17T19:20:41.580Z,2.30
2022-08-17T19:21:58.982Z,2.58
2022-08-17T19:23:22.073Z,2.33
2022-08-17T19:24:27.473Z,2.30
2022-08-17T19:25:38.141Z,2.10
2022-08-17T19:26:54.333Z,2.50
2022-08-17T19:28:22.623Z,2.70
2022-08-17T19:29:32.168Z,2.72
2022-08-17T19:30:36.497Z,2.40
2022-08-17T19:31:38.269Z,2.20
2022-08-17T19:32:40.866Z,2.20
2022-08-17T19:33:43.029Z,2.33
2022-08-17T19:34:50.010Z,2.17
2022-08-17T19:35:54.570Z,2.15
2022-08-17T19:37:34.429Z,2.90
2022-08-17T19:38:42.605Z,2.50
2022-08-17T19:39:59.304Z,2.30
2022-08-17T19:41:05.230Z,2.50
2022-08-17T19:42:49.871Z,2.80
2022-08-17T19:43:59.852Z,2.92
2022-08-17T19:45:10.666Z,2.43
2022-08-17T19:46:49.905Z,2.60
2022-08-17T19:48:03.064Z,2.60
2022-08-17T19:49:33.264Z,2.75
2022-08-17T19:50:54.205Z,2.45
2022-08-17T19:52:02.019Z,2.85
2022-08-17T19:53:07.601Z,2.45
2022-08-17T19:54:09.267Z,2.40
2022-08-17T19:55:33.653Z,2.53
2022-08-17T19:56:35.406Z,2.25
2022-08-17T19:57:47.199Z,2.50
2022-08-17T19:58:48.944Z,2.72
2022-08-17T20:00:12.974Z,2.42
2022-08-17T20:01:29.853Z,2.55
2022-08-17T20:02:47.911Z,2.72
2022-08-17T20:04:23.922Z,2.47
2022-08-17T20:06:10.998Z,2.40
2022-08-17T20:07:17.062Z,2.60
2022-08-17T20:08:23.398Z,2.40
2022-08-17T20:09:44.049Z,2.03
2022-08-17T20:10:55.045Z,2.07
2022-08-17T20:12:03.934Z,2.53
2022-08-17T20:13:17.542Z,2.10
2022-08-17T20:15:06.888Z,2.00
2022-08-17T20:16:10.468Z,2.08
2022-08-17T20:17:12.747Z,2.65
2022-08-17T20:18:43.967Z,2.35
2022-08-17T20:19:53.159Z,2.55
2022-08-17T20:21:05.846Z,2.60
2022-08-17T20:22:20.996Z,2.30
2022-08-17T20:23:28.865Z,1.90
2022-08-17T20:24:39.806Z,2.10
2022-08-17T20:25:47.388Z,2.30
2022-08-17T20:26:58.689Z,2.58
2022-08-17T20:28:17.299Z,2.38
2022-08-17T20:29:19.136Z,2.25
2022-08-17T20:30:41.993Z,2.15
2022-08-17T20:31:55.424Z,2.25
2022-08-17T20:32:58.189Z,1.95
2022-08-17T20:34:25.396Z,2.35
2022-08-17T20:35:38.794Z,1.90
2022-08-17T20:37:05.904Z,2.00
2022-08-17T20:38:31.462Z,1.75
2022-08-17T20:39:44.690Z,1.85
2022-08-17T20:40:56.606Z,2.00
2022-08-17T20:42:09.327Z,1.98
2022-08-17T20:43:32.634Z,1.80
2022-08-17T20:44:36.740Z,1.92
2022-08-17T20:45:41.305Z,1.65
2022-08-17T20:46:56.990Z,1.73
2022-08-17T20:48:36.296Z,1.60
2022-08-17T20:49:44.897Z,1.90
2022-08-17T20:50:52.692Z,1.80
2022-08-17T20:52:10.517Z,1.83
2022-08-17T20:53:47.189Z,1.88
2022-08-17T20:54:53.510Z,1.92
2022-08-17T20:55:55.570Z,1.88
2022-08-17T20:56:59.151Z,1.55
2022-08-17T20:58:16.125Z,1.90
2022-08-17T20:59:20.667Z,1.70
2022-08-17T21:00:28.166Z,1.60
2022-08-17T21:01:40.667Z,1.65
2022-08-17T21:02:45.470Z,1.80
2022-08-17T21:03:51.816Z,1.70
2022-08-17T21:04:54.543Z,1.90
2022-08-17T21:06:00.816Z,1.77
2022-08-17T21:07:30.393Z,2.00
2022-08-17T21:08:58.888Z,1.83
2022-08-17T21:10:14.952Z,2.05
2022-08-17T21:12:00.015Z,1.85
2022-08-17T21:13:04.314Z,2.27
2022-08-17T21:14:14.787Z,2.10
2022-08-17T21:15:38.096Z,1.90
2022-08-17T21:16:53.405Z,1.90
2022-08-17T21:18:28.291Z,1.90
2022-08-17T21:20:10.356Z,2.05
2022-08-17T21:21:31.315Z,2.25
2022-08-17T21:22:56.740Z,1.80
2022-08-17T21:24:05.015Z,2.00
2022-08-17T21:25:18.825Z,2.13
2022-08-17T21:27:00.145Z,1.83
2022-08-17T21:28:16.852Z,1.98
2022-08-17T21:29:31.192Z,1.63
2022-08-17T21:30:34.691Z,1.80
2022-08-17T21:31:38.245Z,1.80
2022-08-17T21:32:43.124Z,1.80
2022-08-17T21:34:31.150Z,2.10
2022-08-17T21:35:53.696Z,2.20
2022-08-17T21:37:23.390Z,2.05
2022-08-17T21:38:40.273Z,1.90
2022-08-17T21:39:42.463Z,2.10
2022-08-17T21:40:49.913Z,1.90
2022-08-17T21:41:55.612Z,2.40
2022-08-17T21:43:05.413Z,2.00
2022-08-17T21:44:22.398Z,2.10
2022-08-17T21:45:41.193Z,2.22
2022-08-17T21:46:46.613Z,2.00
2022-08-17T21:47:51.671Z,1.80
2022-08-17T21:48:55.257Z,1.92
2022-08-17T21:50:15.996Z,1.90
2022-08-17T21:51:22.806Z,2.13
2022-08-17T21:52:27.470Z,1.90
2022-08-17T21:53:37.326Z,2.05
2022-08-17T21:54:48.136Z,1.80
2022-08-17T21:55:52.302Z,1.90
2022-08-17T21:56:54.870Z,1.80
2022-08-17T21:58:14.109Z,1.90
2022-08-17T21:59:38.548Z,1.73
2022-08-17T22:00:40.378Z,1.75
2022-08-17T22:01:43.052Z,1.98
2022-08-17T22:03:04.957Z,1.73
2022-08-17T22:04:12.539Z,1.70
2022-08-17T22:05:15.333Z,2.00
2022-08-17T22:06:27.537Z,1.80
2022-08-17T22:07:40.161Z,1.95
2022-08-17T22:08:41.964Z,2.00
2022-08-17T22:09:46.497Z,1.70
2022-08-17T22:10:50.695Z,2.00
2022-08-17T22:11:57.094Z,1.80
2022-08-17T22:13:05.839Z,2.33
2022-08-17T22:14:25.655Z,1.83
2022-08-17T22:15:27.931Z,1.77
2022-08-17T22:16:29.904Z,2.00
2022-08-17T22:17:38.230Z,1.90
2022-08-17T22:18:41.076Z,2.17
2022-08-17T22:19:51.447Z,2.05
2022-08-17T22:20:57.125Z,1.98
2022-08-17T22:22:26.302Z,1.90
2022-08-17T22:23:51.169Z,2.20
2022-08-17T22:24:57.508Z,2.15
2022-08-17T22:26:09.549Z,2.40
2022-08-17T22:27:14.359Z,2.00
2022-08-17T22:28:37.056Z,2.22
2022-08-17T22:29:57.123Z,1.90
2022-08-17T22:31:03.469Z,1.70
2022-08-17T22:32:05.297Z,2.05
2022-08-17T22:33:28.687Z,2.10
2022-08-17T22:34:30.443Z,1.88
2022-08-17T22:35:42.618Z,1.98
2022-08-17T22:36:44.369Z,1.70
2022-08-17T22:37:46.201Z,1.67
2022-08-17T22:38:48.296Z,1.75
2022-08-17T22:40:08.395Z,1.92
2022-08-17T22:41:27.588Z,1.92
2022-08-17T22:42:29.412Z,1.92
2022-08-17T22:43:31.520Z,2.00
2022-08-17T22:44:47.922Z,1.80
2022-08-17T22:45:53.305Z,2.10
2022-08-17T22:47:17.005Z,1.92
2022-08-17T22:48:22.255Z,1.90
2022-08-17T22:49:53.360Z,1.97
2022-08-17T22:51:13.231Z,1.90
2022-08-17T22:52:15.724Z,1.90
2022-08-17T22:53:38.927Z,2.05
2022-08-17T22:54:59.409Z,1.73
2022-08-17T22:56:24.786Z,1.90
2022-08-17T22:57:47.907Z,2.10
2022-08-17T22:59:14.508Z,1.80
2022-08-17T23:00:44.756Z,1.95
2022-08-17T23:02:13.906Z,2.10
2022-08-17T23:03:25.084Z,2.10
2022-08-17T23:04:36.179Z,2.10
2022-08-17T23:05:39.703Z,2.22
2022-08-17T23:06:44.344Z,2.10
2022-08-17T23:07:47.270Z,2.00
2022-08-17T23:08:51.373Z,2.20
2022-08-17T23:09:53.548Z,1.90
2022-08-17T23:10:55.946Z,1.92
2022-08-17T23:11:58.719Z,2.03
2022-08-17T23:13:01.293Z,2.15
2022-08-17T23:14:03.840Z,1.83
2022-08-17T23:15:17.711Z,1.95
2022-08-17T23:16:21.061Z,2.22
2022-08-17T23:17:22.784Z,1.98
2022-08-17T23:18:25.264Z,2.00
2022-08-17T23:19:28.516Z,2.20
2022-08-17T23:20:31.757Z,1.90
2022-08-17T23:21:33.751Z,2.13
2022-08-17T23:22:51.548Z,2.00
2022-08-17T23:23:55.165Z,1.90
2022-08-17T23:24:59.121Z,2.03
2022-08-17T23:26:01.807Z,2.03
2022-08-17T23:27:07.685Z,2.03
2022-08-17T23:28:09.391Z,1.98
2022-08-17T23:29:11.089Z,2.00
2022-08-17T23:30:13.618Z,2.20
2022-08-17T23:31:18.574Z,1.95
2022-08-17T23:32:25.558Z,2.20
2022-08-17T23:33:30.982Z,1.88
2022-08-17T23:34:32.947Z,2.05
2022-08-17T23:35:39.033Z,2.27
2022-08-17T23:36:52.785Z,1.90
2022-08-17T23:37:55.564Z,1.85
2022-08-17T23:38:57.665Z,2.20
2022-08-17T23:39:59.688Z,2.33
2022-08-17T23:41:07.618Z,2.10
2022-08-17T23:42:10.918Z,2.17
2022-08-17T23:43:23.919Z,2.20
2022-08-17T23:44:28.685Z,1.95
2022-08-17T23:45:30.417Z,2.20
2022-08-17T23:46:32.722Z,2.00
2022-08-17T23:47:35.555Z,2.30
2022-08-17T23:48:38.136Z,2.05
2022-08-17T23:49:41.288Z,1.98
2022-08-17T23:50:43.145Z,2.15
2022-08-17T23:51:46.942Z,1.90
2022-08-17T23:52:48.766Z,2.25
2022-08-17T23:53:58.043Z,1.90
2022-08-17T23:54:59.778Z,1.95
2022-08-17T23:56:09.339Z,2.33
2022-08-17T23:57:14.226Z,1.97
2022-08-17T23:58:16.583Z,2.20
2022-08-17T23:59:20.701Z,2.03
